createdAt,value
2019-01-23T00:02:24.487Z,-2.30
2019-01-23T00:04:54.852Z,-2.20
2019-01-23T00:07:25.227Z,-2.30
2019-01-23T00:09:55.588Z,-2.30
2019-01-23T00:12:25.966Z,-2.40
2019-01-23T00:14:56.331Z,-2.40
2019-01-23T00:17:26.770Z,-2.50
2019-01-23T00:19:57.167Z,-2.40
2019-01-23T00:22:27.553Z,-2.20
2019-01-23T00:24:57.913Z,-2.20
2019-01-23T00:27:28.284Z,-2.20
2019-01-23T00:29:58.664Z,-2.30
2019-01-23T00:32:29.121Z,-2.50
2019-01-23T00:34:59.484Z,-2.50
2019-01-23T00:37:29.843Z,-2.40
2019-01-23T00:40:00.287Z,-2.20
2019-01-23T00:42:30.660Z,-2.30
2019-01-23T00:45:01.155Z,-2.30
2019-01-23T00:47:31.521Z,-2.50
2019-01-23T00:50:01.889Z,-2.60
2019-01-23T00:52:32.240Z,-2.40
2019-01-23T00:55:02.609Z,-2.40
2019-01-23T00:57:33.018Z,-2.60
2019-01-23T01:00:03.403Z,-2.50
2019-01-23T01:02:33.765Z,-2.50
2019-01-23T01:05:04.901Z,-2.50
2019-01-23T01:07:35.252Z,-2.60
2019-01-23T01:10:08.436Z,-2.60
2019-01-23T01:12:38.792Z,-2.60
2019-01-23T01:15:13.327Z,-2.50
2019-01-23T01:17:41.522Z,-2.30
2019-01-23T01:20:13.200Z,-2.40
2019-01-23T01:22:43.650Z,-2.50
2019-01-23T01:25:15.719Z,-2.40
2019-01-23T01:27:46.080Z,-2.40
2019-01-23T01:30:18.842Z,-2.30
2019-01-23T01:32:49.185Z,-2.10
2019-01-23T01:35:19.564Z,-2.20
2019-01-23T01:37:49.998Z,-2.10
2019-01-23T01:40:20.818Z,-2.00
2019-01-23T01:42:51.182Z,-2.10
2019-01-23T01:45:21.656Z,-2.10
2019-01-23T01:47:52.013Z,-1.90
2019-01-23T01:50:22.384Z,-1.90
2019-01-23T01:52:52.756Z,-2.00
2019-01-23T01:55:23.117Z,-2.00
2019-01-23T01:57:56.622Z,-2.00
2019-01-23T02:00:26.981Z,-1.90
2019-01-23T02:02:57.359Z,-2.00
2019-01-23T02:05:27.722Z,-1.90
2019-01-23T02:07:58.082Z,-2.00
2019-01-23T02:10:28.448Z,-2.10
2019-01-23T02:12:58.831Z,-2.00
2019-01-23T02:15:29.185Z,-2.00
2019-01-23T02:17:59.551Z,-1.70
2019-01-23T02:20:29.934Z,-1.70
2019-01-23T02:23:00.289Z,-1.80
2019-01-23T02:25:30.720Z,-1.90
2019-01-23T02:28:01.161Z,-2.10
2019-01-23T02:30:31.517Z,-2.20
2019-01-23T02:33:01.924Z,-2.30
2019-01-23T02:35:32.289Z,-2.30
2019-01-23T02:38:02.742Z,-2.20
2019-01-23T02:40:33.093Z,-2.30
2019-01-23T02:43:03.478Z,-2.40
2019-01-23T02:45:33.845Z,-2.40
2019-01-23T02:48:05.859Z,-2.50
2019-01-23T02:50:36.353Z,-2.80
2019-01-23T02:53:06.744Z,-2.70
2019-01-23T02:55:37.105Z,-2.50
2019-01-23T02:58:07.498Z,-2.40
2019-01-23T03:00:37.914Z,-2.40
2019-01-23T03:03:08.260Z,-2.30
2019-01-23T03:05:38.641Z,-2.30
2019-01-23T03:08:08.986Z,-2.10
2019-01-23T03:10:39.360Z,-2.00
2019-01-23T03:13:09.725Z,-2.10
2019-01-23T03:15:41.142Z,-2.10
2019-01-23T03:18:11.571Z,-2.30
2019-01-23T03:20:41.950Z,-2.40
2019-01-23T03:23:12.293Z,-2.40
2019-01-23T03:25:44.243Z,-2.40
2019-01-23T03:28:14.604Z,-2.40
2019-01-23T03:30:44.986Z,-2.50
2019-01-23T03:33:15.383Z,-2.50
2019-01-23T03:35:45.858Z,-2.50
2019-01-23T03:38:16.238Z,-2.40
2019-01-23T03:40:46.631Z,-2.30
2019-01-23T03:43:17.029Z,-2.20
2019-01-23T03:45:47.570Z,-2.30
2019-01-23T03:48:17.962Z,-2.50
2019-01-23T03:50:48.381Z,-2.40
2019-01-23T03:53:18.762Z,-2.40
2019-01-23T03:55:49.156Z,-2.60
2019-01-23T03:58:19.547Z,-2.50
2019-01-23T04:00:49.952Z,-2.30
2019-01-23T04:03:20.438Z,-2.20
2019-01-23T04:05:50.879Z,-2.10
2019-01-23T04:08:21.335Z,-2.20
2019-01-23T04:10:51.725Z,-2.10
2019-01-23T04:13:22.121Z,-2.30
2019-01-23T04:15:52.516Z,-2.40
2019-01-23T04:18:22.917Z,-2.40
2019-01-23T04:20:53.302Z,-2.40
2019-01-23T04:23:23.695Z,-2.50
2019-01-23T04:25:54.098Z,-2.60
2019-01-23T04:28:24.497Z,-2.50
2019-01-23T04:30:54.888Z,-2.50
2019-01-23T04:33:25.307Z,-2.40
2019-01-23T04:35:55.806Z,-2.30
2019-01-23T04:38:26.197Z,-2.40
2019-01-23T04:40:56.585Z,-2.50
2019-01-23T04:43:26.982Z,-2.60
2019-01-23T04:45:57.368Z,-2.70
2019-01-23T04:48:27.828Z,-2.80
2019-01-23T04:51:23.025Z,-2.80
2019-01-23T04:53:53.420Z,-2.80
2019-01-23T04:56:23.798Z,-2.90
2019-01-23T04:58:54.185Z,-2.90
2019-01-23T05:01:24.766Z,-2.90
2019-01-23T05:03:55.172Z,-3.00
2019-01-23T05:06:25.647Z,-3.00
2019-01-23T05:08:56.045Z,-3.00
2019-01-23T05:11:26.445Z,-3.10
2019-01-23T05:13:56.803Z,-3.10
2019-01-23T05:16:27.450Z,-3.10
2019-01-23T05:18:57.848Z,-3.00
2019-01-23T05:21:28.604Z,-2.90
2019-01-23T05:23:59.078Z,-2.90
2019-01-23T05:26:29.471Z,-3.00
2019-01-23T05:29:01.053Z,-3.10
2019-01-23T05:31:31.539Z,-3.00
2019-01-23T05:34:01.970Z,-3.00
2019-01-23T05:36:32.377Z,-3.10
2019-01-23T05:39:02.813Z,-3.00
2019-01-23T05:41:33.258Z,-3.00
2019-01-23T05:44:03.629Z,-2.80
2019-01-23T05:46:34.035Z,-2.70
2019-01-23T05:49:04.517Z,-2.50
2019-01-23T05:51:35.067Z,-2.50
2019-01-23T05:54:05.805Z,-2.60
2019-01-23T05:56:36.277Z,-2.60
2019-01-23T05:59:06.682Z,-2.60
2019-01-23T06:01:37.189Z,-2.60
2019-01-23T06:04:07.593Z,-2.60
2019-01-23T06:06:38.018Z,-2.70
2019-01-23T06:09:09.953Z,-2.60
2019-01-23T06:11:40.380Z,-2.60
2019-01-23T06:14:10.876Z,-2.80
2019-01-23T06:16:41.356Z,-2.90
2019-01-23T06:19:11.750Z,-3.00
2019-01-23T06:21:42.149Z,-3.10
2019-01-23T06:24:13.853Z,-3.00
2019-01-23T06:26:44.257Z,-3.10
2019-01-23T06:29:14.657Z,-3.10
2019-01-23T06:31:45.046Z,-3.20
2019-01-23T06:34:15.462Z,-3.10
2019-01-23T06:36:45.877Z,-3.20
2019-01-23T06:39:16.250Z,-3.30
2019-01-23T06:41:46.666Z,-3.40
2019-01-23T06:44:17.089Z,-3.50
2019-01-23T06:46:47.464Z,-3.50
2019-01-23T06:49:17.914Z,-3.50
2019-01-23T06:51:48.318Z,-3.50
2019-01-23T06:54:18.751Z,-3.70
2019-01-23T06:56:49.282Z,-3.60
2019-01-23T06:59:19.709Z,-3.60
2019-01-23T07:01:50.099Z,-3.60
2019-01-23T07:04:20.520Z,-3.60
2019-01-23T07:06:50.905Z,-3.60
2019-01-23T07:09:21.294Z,-3.50
2019-01-23T07:11:51.746Z,-3.50
2019-01-23T07:14:22.172Z,-3.60
2019-01-23T07:16:52.583Z,-3.50
2019-01-23T07:19:22.994Z,-3.60
2019-01-23T07:21:53.417Z,-3.60
2019-01-23T07:24:23.881Z,-3.60
2019-01-23T07:26:54.277Z,-3.60
2019-01-23T07:29:24.653Z,-3.50
2019-01-23T07:31:55.133Z,-3.50
2019-01-23T07:34:25.514Z,-3.50
2019-01-23T07:36:56.003Z,-3.40
2019-01-23T07:39:26.424Z,-3.30
2019-01-23T07:41:57.150Z,-3.30
2019-01-23T07:44:27.679Z,-3.40
2019-01-23T07:46:58.058Z,-3.40
2019-01-23T07:49:28.431Z,-3.30
2019-01-23T07:51:58.826Z,-3.30
2019-01-23T07:54:29.196Z,-3.30
2019-01-23T07:56:59.581Z,-3.30
2019-01-23T07:59:29.980Z,-3.20
2019-01-23T08:02:00.411Z,-3.00
2019-01-23T08:04:30.859Z,-3.00
2019-01-23T08:07:01.300Z,-2.90
2019-01-23T08:09:31.712Z,-2.70
2019-01-23T08:12:02.131Z,-2.50
2019-01-23T08:14:32.567Z,-2.20
2019-01-23T08:17:03.006Z,-1.80
2019-01-23T08:19:33.387Z,-1.40
2019-01-23T08:22:03.897Z,-0.90
2019-01-23T08:24:34.298Z,-0.20
2019-01-23T08:27:07.102Z,0.50
2019-01-23T08:29:38.607Z,0.90
2019-01-23T08:32:09.044Z,1.10
2019-01-23T08:34:39.430Z,1.20
2019-01-23T08:37:09.893Z,1.10
2019-01-23T08:39:40.284Z,0.90
2019-01-23T08:42:13.605Z,1.00
2019-01-23T08:44:43.968Z,1.00
2019-01-23T08:47:14.385Z,1.90
2019-01-23T08:49:45.648Z,2.50
2019-01-23T08:52:16.195Z,2.50
2019-01-23T08:54:46.623Z,2.20
2019-01-23T08:57:17.123Z,1.70
2019-01-23T08:59:47.505Z,1.90
2019-01-23T09:02:17.902Z,2.40
2019-01-23T09:04:48.329Z,2.50
2019-01-23T09:07:18.872Z,2.50
2019-01-23T09:09:49.290Z,2.30
2019-01-23T09:12:19.669Z,1.70
2019-01-23T09:14:50.078Z,1.10
2019-01-23T09:17:20.466Z,1.60
2019-01-23T09:19:50.857Z,0.90
2019-01-23T09:22:21.223Z,0.60
2019-01-23T09:24:51.652Z,-0.10
2019-01-23T09:27:22.094Z,0.00
2019-01-23T09:29:52.511Z,-0.50
2019-01-23T09:33:01.408Z,-0.20
2019-01-23T09:35:45.005Z,0.30
2019-01-23T09:38:41.335Z,0.40
2019-01-23T09:41:23.751Z,0.70
2019-01-23T09:44:53.373Z,0.60
2019-01-23T09:47:35.650Z,0.10
2019-01-23T09:50:55.992Z,-0.70
2019-01-23T09:53:50.139Z,-0.70
2019-01-23T09:56:20.833Z,-0.90
2019-01-23T09:58:51.209Z,-0.70
2019-01-23T10:01:21.622Z,-0.50
2019-01-23T10:03:51.995Z,-0.30
2019-01-23T10:06:22.435Z,-0.20
2019-01-23T10:08:52.897Z,0.20
2019-01-23T10:11:23.389Z,0.40
2019-01-23T10:13:53.766Z,0.30
2019-01-23T10:16:24.180Z,0.70
2019-01-23T10:18:56.117Z,0.70
2019-01-23T10:21:26.719Z,0.80
2019-01-23T10:23:57.073Z,1.10
2019-01-23T10:26:27.456Z,1.40
2019-01-23T10:28:57.861Z,1.70
2019-01-23T10:31:28.247Z,1.90
2019-01-23T10:33:58.628Z,1.90
2019-01-23T10:36:29.021Z,1.80
2019-01-23T10:38:59.460Z,2.10
2019-01-23T10:41:29.837Z,2.60
2019-01-23T10:44:00.237Z,2.90
2019-01-23T10:46:30.639Z,3.00
2019-01-23T10:49:01.006Z,3.30
2019-01-23T10:51:31.365Z,2.60
2019-01-23T10:54:01.849Z,2.50
2019-01-23T10:56:32.325Z,2.90
2019-01-23T10:59:02.770Z,2.60
2019-01-23T11:01:33.145Z,2.80
2019-01-23T11:04:03.538Z,2.60
2019-01-23T11:06:33.893Z,2.80
2019-01-23T11:09:06.619Z,3.20
2019-01-23T11:11:37.027Z,3.50
2019-01-23T11:14:07.417Z,3.40
2019-01-23T11:16:37.789Z,3.70
2019-01-23T11:19:08.244Z,5.10
2019-01-23T11:21:38.617Z,5.90
2019-01-23T11:24:09.007Z,6.20
2019-01-23T11:26:39.364Z,6.90
2019-01-23T11:29:09.743Z,7.50
2019-01-23T11:31:40.099Z,7.60
2019-01-23T11:34:10.493Z,7.40
2019-01-23T11:36:40.948Z,7.70
2019-01-23T11:39:11.322Z,8.50
2019-01-23T11:41:41.752Z,8.60
2019-01-23T11:44:12.122Z,7.90
2019-01-23T11:46:42.494Z,6.50
2019-01-23T11:49:12.929Z,5.80
2019-01-23T11:51:43.405Z,5.20
2019-01-23T11:54:13.785Z,4.70
2019-01-23T11:56:44.154Z,4.30
2019-01-23T11:59:14.535Z,3.80
2019-01-23T12:01:44.914Z,3.70
2019-01-23T12:04:15.290Z,3.40
2019-01-23T12:06:45.660Z,3.10
2019-01-23T12:09:16.033Z,2.90
2019-01-23T12:11:46.406Z,3.10
2019-01-23T12:14:16.786Z,3.20
2019-01-23T12:16:47.174Z,3.40
2019-01-23T12:19:18.422Z,3.30
2019-01-23T12:21:48.849Z,3.20
2019-01-23T12:24:19.210Z,2.70
2019-01-23T12:26:49.596Z,2.40
2019-01-23T12:29:19.949Z,2.30
2019-01-23T12:31:50.350Z,2.40
2019-01-23T12:34:20.713Z,2.50
2019-01-23T12:36:51.297Z,2.10
2019-01-23T12:39:21.668Z,2.00
2019-01-23T12:41:52.070Z,2.10
2019-01-23T12:44:22.428Z,2.00
2019-01-23T12:46:52.857Z,1.80
2019-01-23T12:49:23.251Z,2.00
2019-01-23T12:51:53.878Z,1.80
2019-01-23T12:54:24.250Z,2.00
2019-01-23T12:56:54.633Z,2.10
2019-01-23T12:59:25.098Z,2.10
2019-01-23T13:01:55.454Z,2.00
2019-01-23T13:04:25.827Z,1.70
2019-01-23T13:06:56.245Z,1.90
2019-01-23T13:09:26.695Z,2.10
2019-01-23T13:11:57.364Z,2.30
2019-01-23T13:14:27.754Z,2.30
2019-01-23T13:16:58.509Z,2.60
2019-01-23T13:19:28.890Z,2.80
2019-01-23T13:21:59.368Z,2.80
2019-01-23T13:24:29.950Z,2.80
2019-01-23T13:27:00.305Z,2.60
2019-01-23T13:29:30.702Z,2.70
2019-01-23T13:32:01.102Z,3.30
2019-01-23T13:34:31.465Z,3.30
2019-01-23T13:37:01.855Z,3.80
2019-01-23T13:39:32.247Z,4.10
2019-01-23T13:42:02.621Z,4.40
2019-01-23T13:44:33.122Z,4.40
2019-01-23T13:47:03.597Z,4.60
2019-01-23T13:49:33.985Z,4.70
2019-01-23T13:52:04.358Z,4.90
2019-01-23T13:54:34.750Z,4.80
2019-01-23T13:57:05.124Z,4.20
2019-01-23T13:59:35.609Z,4.00
2019-01-23T14:02:05.973Z,3.50
2019-01-23T14:04:36.348Z,3.00
2019-01-23T14:07:06.842Z,3.00
2019-01-23T14:09:37.226Z,2.70
2019-01-23T14:12:07.618Z,2.50
2019-01-23T14:14:37.998Z,2.40
2019-01-23T14:17:08.369Z,2.30
2019-01-23T14:19:38.809Z,2.10
2019-01-23T14:22:09.214Z,2.10
2019-01-23T14:24:39.590Z,2.10
2019-01-23T14:27:09.961Z,2.00
2019-01-23T14:29:40.361Z,1.80
2019-01-23T14:32:10.709Z,1.80
2019-01-23T14:34:41.108Z,1.80
2019-01-23T14:37:11.502Z,1.70
2019-01-23T14:39:41.882Z,1.70
2019-01-23T14:42:12.262Z,1.60
2019-01-23T14:44:42.601Z,1.30
2019-01-23T14:47:12.962Z,1.40
2019-01-23T14:49:43.321Z,1.30
2019-01-23T14:52:13.709Z,1.30
2019-01-23T14:54:44.061Z,1.30
2019-01-23T14:57:14.463Z,1.40
2019-01-23T14:59:44.894Z,1.30
2019-01-23T15:02:15.264Z,1.30
2019-01-23T15:04:45.633Z,1.30
2019-01-23T15:07:16.042Z,1.10
2019-01-23T15:09:46.435Z,1.20
2019-01-23T15:12:16.865Z,1.00
2019-01-23T15:14:47.266Z,1.10
2019-01-23T15:17:17.684Z,1.30
2019-01-23T15:19:48.077Z,1.20
2019-01-23T15:22:18.454Z,1.10
2019-01-23T15:24:48.839Z,0.80
2019-01-23T15:27:19.206Z,0.90
2019-01-23T15:29:49.617Z,1.00
2019-01-23T15:32:20.126Z,0.90
2019-01-23T15:34:50.534Z,0.80
2019-01-23T15:37:20.963Z,0.80
2019-01-23T15:39:51.459Z,0.90
2019-01-23T15:42:21.840Z,0.90
2019-01-23T15:44:52.224Z,0.90
2019-01-23T15:47:22.643Z,0.90
2019-01-23T15:49:53.110Z,0.80
2019-01-23T15:52:23.614Z,0.90
2019-01-23T15:54:54.052Z,0.90
2019-01-23T15:57:24.537Z,0.80
2019-01-23T15:59:54.953Z,0.80
2019-01-23T16:02:25.337Z,0.70
2019-01-23T16:04:55.745Z,0.80
2019-01-23T16:07:26.134Z,0.70
2019-01-23T16:09:56.506Z,0.70
2019-01-23T16:12:26.876Z,0.70
2019-01-23T16:14:57.286Z,0.60
2019-01-23T16:17:27.678Z,0.60
2019-01-23T16:19:58.071Z,0.60
2019-01-23T16:22:28.878Z,0.50
2019-01-23T16:24:59.302Z,0.50
2019-01-23T16:27:29.706Z,0.50
2019-01-23T16:30:00.251Z,0.60
2019-01-23T16:32:31.640Z,0.50
2019-01-23T16:35:02.249Z,0.50
2019-01-23T16:37:32.634Z,0.50
2019-01-23T16:40:03.009Z,0.50
2019-01-23T16:42:33.390Z,0.50
2019-01-23T16:45:04.290Z,0.50
2019-01-23T16:47:34.678Z,0.40
2019-01-23T16:50:08.857Z,0.40
2019-01-23T16:52:39.272Z,0.30
2019-01-23T16:55:10.298Z,0.40
2019-01-23T16:57:40.778Z,0.40
2019-01-23T17:00:13.553Z,0.50
2019-01-23T17:02:44.176Z,0.30
2019-01-23T17:05:20.128Z,0.50
2019-01-23T17:07:50.538Z,0.30
2019-01-23T17:10:22.394Z,0.30
2019-01-23T17:12:52.902Z,0.30
2019-01-23T17:15:23.523Z,0.20
2019-01-23T17:17:53.974Z,0.20
2019-01-23T17:20:28.163Z,0.30
2019-01-23T17:22:58.691Z,0.30
2019-01-23T17:25:29.178Z,0.20
2019-01-23T17:27:59.564Z,0.20
2019-01-23T17:30:30.202Z,0.30
2019-01-23T17:33:00.591Z,0.30
2019-01-23T17:35:31.087Z,0.20
2019-01-23T17:38:01.561Z,0.20
2019-01-23T17:40:31.921Z,0.20
2019-01-23T17:43:02.545Z,0.30
2019-01-23T17:45:35.567Z,0.30
2019-01-23T17:48:08.149Z,0.30
2019-01-23T17:50:38.531Z,0.30
2019-01-23T17:53:08.993Z,0.30
2019-01-23T17:55:40.400Z,0.20
2019-01-23T17:58:13.021Z,0.20
2019-01-23T18:00:54.421Z,0.30
2019-01-23T18:03:24.805Z,0.10
2019-01-23T18:05:55.259Z,0.20
2019-01-23T18:08:25.643Z,0.20
2019-01-23T18:10:56.248Z,0.10
2019-01-23T18:13:26.637Z,0.00
2019-01-23T18:16:02.696Z,0.10
2019-01-23T18:18:33.087Z,0.00
2019-01-23T18:21:03.514Z,0.00
2019-01-23T18:23:33.907Z,0.00
2019-01-23T18:26:04.607Z,0.00
2019-01-23T18:28:34.966Z,0.00
2019-01-23T18:31:38.710Z,0.00
2019-01-23T18:35:02.419Z,0.00
2019-01-23T18:38:13.347Z,0.10
2019-01-23T18:41:24.900Z,0.00
2019-01-23T18:44:27.895Z,0.10
2019-01-23T18:48:00.729Z,-0.10
2019-01-23T18:51:10.457Z,-0.20
2019-01-23T18:53:40.950Z,-0.40
2019-01-23T18:56:11.430Z,-0.40
2019-01-23T18:58:41.971Z,-0.40
2019-01-23T19:01:12.487Z,-0.40
2019-01-23T19:03:42.973Z,-0.40
2019-01-23T19:06:13.491Z,-0.40
2019-01-23T19:08:43.909Z,-0.20
2019-01-23T19:11:14.701Z,-0.10
2019-01-23T19:13:45.106Z,-0.30
2019-01-23T19:16:15.665Z,-0.20
2019-01-23T19:18:46.085Z,-0.20
2019-01-23T19:21:16.621Z,-0.20
2019-01-23T19:23:47.043Z,-0.10
2019-01-23T19:26:17.705Z,0.00
2019-01-23T19:28:48.112Z,-0.10
2019-01-23T19:31:18.553Z,0.00
2019-01-23T19:33:49.063Z,0.00
2019-01-23T19:36:19.542Z,-0.10
2019-01-23T19:38:49.990Z,-0.20
2019-01-23T19:41:20.823Z,-0.20
2019-01-23T19:43:51.434Z,-0.20
2019-01-23T19:46:21.830Z,-0.10
2019-01-23T19:48:52.622Z,-0.20
2019-01-23T19:51:23.107Z,-0.20
2019-01-23T19:53:53.727Z,-0.20
2019-01-23T19:56:24.323Z,-0.20
2019-01-23T19:58:54.806Z,-0.20
2019-01-23T20:01:25.309Z,-0.20
2019-01-23T20:03:57.203Z,-0.30
2019-01-23T20:06:27.619Z,-0.30
2019-01-23T20:08:58.030Z,-0.40
2019-01-23T20:11:28.570Z,-0.50
2019-01-23T20:13:59.011Z,-0.50
2019-01-23T20:16:29.409Z,-0.40
2019-01-23T20:19:00.947Z,-0.40
2019-01-23T20:21:31.418Z,-0.40
2019-01-23T20:24:01.832Z,-0.30
2019-01-23T20:26:32.296Z,-0.40
2019-01-23T20:29:02.696Z,-0.40
2019-01-23T20:31:33.881Z,-0.30
2019-01-23T20:34:04.762Z,-0.30
2019-01-23T20:36:35.222Z,-0.30
2019-01-23T20:39:10.004Z,-0.40
2019-01-23T20:41:40.443Z,-0.30
2019-01-23T20:44:10.902Z,-0.40
2019-01-23T20:46:41.411Z,-0.40
2019-01-23T20:49:11.850Z,-0.50
2019-01-23T20:51:42.252Z,-0.60
2019-01-23T20:54:12.631Z,-0.40
2019-01-23T20:56:43.046Z,-0.40
2019-01-23T20:59:13.481Z,-0.50
2019-01-23T21:01:43.928Z,-0.40
2019-01-23T21:04:14.320Z,-0.50
2019-01-23T21:06:44.762Z,-0.70
2019-01-23T21:09:18.239Z,-0.70
2019-01-23T21:11:48.634Z,-0.50
2019-01-23T21:14:19.035Z,-0.60
2019-01-23T21:16:49.482Z,-0.60
2019-01-23T21:19:19.971Z,-0.50
2019-01-23T21:21:50.492Z,-0.50
2019-01-23T21:24:20.942Z,-0.50
2019-01-23T21:26:51.367Z,-0.50
2019-01-23T21:29:21.765Z,-0.40
2019-01-23T21:31:52.177Z,-0.40
2019-01-23T21:34:22.544Z,-0.50
2019-01-23T21:36:52.917Z,-0.40
2019-01-23T21:39:23.309Z,-0.40
2019-01-23T21:41:53.716Z,-0.40
2019-01-23T21:44:24.093Z,-0.50
2019-01-23T21:46:54.538Z,-0.50
2019-01-23T21:49:24.966Z,-1.00
2019-01-23T21:51:55.822Z,-0.90
2019-01-23T21:54:26.201Z,-0.90
2019-01-23T21:56:56.597Z,-0.90
2019-01-23T21:59:26.958Z,-0.80
2019-01-23T22:01:57.406Z,-0.70
2019-01-23T22:04:27.794Z,-0.70
2019-01-23T22:06:58.266Z,-0.70
2019-01-23T22:09:29.526Z,-0.70
2019-01-23T22:11:59.934Z,-0.70
2019-01-23T22:14:30.353Z,-0.80
2019-01-23T22:17:00.717Z,-0.70
2019-01-23T22:19:31.178Z,-0.80
2019-01-23T22:22:01.761Z,-0.80
2019-01-23T22:24:32.167Z,-0.90
2019-01-23T22:27:02.593Z,-0.90
2019-01-23T22:29:32.969Z,-0.70
2019-01-23T22:32:03.328Z,-0.70
2019-01-23T22:34:33.713Z,-0.80
2019-01-23T22:37:04.376Z,-0.90
2019-01-23T22:39:34.794Z,-0.90
2019-01-23T22:42:05.507Z,-1.10
2019-01-23T22:44:35.897Z,-1.00
2019-01-23T22:47:06.275Z,-1.00
2019-01-23T22:49:36.663Z,-0.90
2019-01-23T22:52:07.069Z,-0.80
2019-01-23T22:54:37.457Z,-1.00
2019-01-23T22:57:07.831Z,-0.80
2019-01-23T22:59:38.218Z,-0.80
2019-01-23T23:02:08.605Z,-0.80
2019-01-23T23:04:38.982Z,-0.70
2019-01-23T23:07:09.403Z,-0.70
2019-01-23T23:09:39.789Z,-0.70
2019-01-23T23:12:10.237Z,-0.70
2019-01-23T23:14:40.642Z,-0.70
2019-01-23T23:17:11.033Z,-0.60
2019-01-23T23:19:41.401Z,-0.70
2019-01-23T23:22:11.791Z,-0.70
2019-01-23T23:24:42.177Z,-0.80
2019-01-23T23:27:12.553Z,-0.80
2019-01-23T23:29:42.930Z,-0.80
2019-01-23T23:32:13.373Z,-0.80
2019-01-23T23:34:43.753Z,-0.90
2019-01-23T23:37:14.105Z,-0.90
2019-01-23T23:39:44.474Z,-0.90
2019-01-23T23:42:14.853Z,-0.90
2019-01-23T23:44:45.218Z,-0.80
2019-01-23T23:47:15.610Z,-0.80
2019-01-23T23:49:45.979Z,-0.80
2019-01-23T23:52:16.370Z,-0.90
2019-01-23T23:54:46.853Z,-0.80
2019-01-23T23:57:17.305Z,-0.80
2019-01-23T23:59:47.881Z,-0.80
